createdAt,value
2019-04-22T00:00:42.416Z,12.40
2019-04-22T00:01:55.302Z,12.40
2019-04-22T00:03:04.569Z,12.50
2019-04-22T00:04:13.504Z,12.50
2019-04-22T00:05:39.565Z,12.50
2019-04-22T00:06:51.651Z,12.50
2019-04-22T00:08:06.832Z,12.50
2019-04-22T00:09:11.188Z,12.50
2019-04-22T00:10:19.507Z,12.50
2019-04-22T00:11:29.359Z,12.60
2019-04-22T00:13:51.964Z,12.50
2019-04-22T00:14:54.230Z,12.50
2019-04-22T00:15:59.335Z,12.60
2019-04-22T00:17:16.320Z,12.50
2019-04-22T00:18:22.356Z,12.60
2019-04-22T00:20:43.644Z,12.60
2019-04-22T00:21:47.706Z,12.60
2019-04-22T00:22:52.078Z,12.60
2019-04-22T00:24:04.497Z,12.70
2019-04-22T00:25:17.805Z,12.70
2019-04-22T00:26:23.990Z,12.70
2019-04-22T00:27:35.621Z,12.60
2019-04-22T00:28:43.920Z,12.70
2019-04-22T00:29:59.895Z,12.60
2019-04-22T00:31:02.894Z,12.60
2019-04-22T00:32:32.021Z,12.60
2019-04-22T00:33:39.317Z,12.60
2019-04-22T00:34:51.921Z,12.60
2019-04-22T00:36:01.219Z,12.70
2019-04-22T00:37:10.948Z,12.60
2019-04-22T00:38:17.673Z,12.60
2019-04-22T00:39:32.943Z,12.60
2019-04-22T00:40:39.318Z,12.60
2019-04-22T00:41:43.928Z,12.60
2019-04-22T00:42:53.819Z,12.60
2019-04-22T00:44:08.383Z,12.50
2019-04-22T00:45:11.705Z,12.50
2019-04-22T00:46:19.690Z,12.50
2019-04-22T00:47:30.559Z,12.50
2019-04-22T00:48:35.637Z,12.50
2019-04-22T00:51:05.779Z,12.40
2019-04-22T00:53:19.695Z,12.40
2019-04-22T00:54:21.558Z,12.30
2019-04-22T00:55:31.256Z,12.30
2019-04-22T00:56:40.970Z,12.30
2019-04-22T00:57:46.462Z,12.20
2019-04-22T00:59:02.847Z,12.20
2019-04-22T01:00:13.038Z,12.20
2019-04-22T01:01:20.732Z,12.20
2019-04-22T01:02:27.180Z,12.20
2019-04-22T01:03:34.292Z,12.10
2019-04-22T01:04:46.530Z,12.10
2019-04-22T01:05:48.231Z,12.00
2019-04-22T01:07:01.520Z,12.00
2019-04-22T01:08:17.771Z,12.00
2019-04-22T01:09:17.429Z,12.00
2019-04-22T01:10:28.769Z,12.00
2019-04-22T01:11:33.916Z,11.90
2019-04-22T01:12:44.037Z,11.90
2019-04-22T01:13:50.072Z,11.90
2019-04-22T01:15:01.019Z,11.90
2019-04-22T01:16:10.803Z,12.00
2019-04-22T01:17:11.657Z,12.00
2019-04-22T01:18:24.996Z,12.00
2019-04-22T01:19:47.150Z,12.00
2019-04-22T01:21:07.219Z,11.90
2019-04-22T01:21:58.363Z,11.90
2019-04-22T01:23:05.602Z,11.90
2019-04-22T01:24:16.770Z,11.90
2019-04-22T01:25:28.157Z,11.90
2019-04-22T01:26:30.042Z,11.90
2019-04-22T01:27:41.862Z,11.90
2019-04-22T01:28:46.074Z,11.90
2019-04-22T01:29:54.346Z,11.80
2019-04-22T01:30:59.441Z,11.90
2019-04-22T01:32:00.814Z,12.00
2019-04-22T01:33:19.222Z,12.00
2019-04-22T01:34:33.451Z,12.00
2019-04-22T01:35:39.847Z,12.00
2019-04-22T01:36:58.709Z,11.90
2019-04-22T01:38:01.404Z,12.00
2019-04-22T01:39:16.377Z,11.90
2019-04-22T01:41:42.388Z,11.90
2019-04-22T01:42:48.500Z,11.80
2019-04-22T01:44:00.773Z,11.90
2019-04-22T01:44:58.191Z,11.80
2019-04-22T01:46:08.545Z,11.80
2019-04-22T01:47:21.290Z,11.70
2019-04-22T01:48:35.667Z,11.70
2019-04-22T01:49:34.377Z,11.70
2019-04-22T01:50:46.278Z,11.60
2019-04-22T01:51:59.745Z,11.60
2019-04-22T01:53:08.591Z,11.50
2019-04-22T01:54:23.374Z,11.60
2019-04-22T01:55:24.912Z,11.50
2019-04-22T01:56:27.571Z,11.50
2019-04-22T01:57:35.262Z,11.50
2019-04-22T01:58:38.078Z,11.50
2019-04-22T01:59:48.753Z,11.40
2019-04-22T02:01:05.939Z,11.40
2019-04-22T02:02:13.942Z,11.40
2019-04-22T02:03:26.421Z,11.30
2019-04-22T02:04:48.068Z,11.40
2019-04-22T02:05:40.653Z,11.40
2019-04-22T02:06:48.247Z,11.50
2019-04-22T02:08:02.394Z,11.60
2019-04-22T02:09:10.948Z,11.60
2019-04-22T02:10:12.345Z,11.60
2019-04-22T02:11:29.280Z,11.60
2019-04-22T02:12:33.393Z,11.60
2019-04-22T02:13:48.027Z,11.60
2019-04-22T02:15:11.815Z,11.60
2019-04-22T02:15:58.730Z,11.70
2019-04-22T02:17:14.054Z,11.60
2019-04-22T02:18:23.381Z,11.60
2019-04-22T02:19:37.381Z,11.60
2019-04-22T02:20:31.560Z,11.60
2019-04-22T02:21:42.315Z,11.60
2019-04-22T02:23:43.895Z,11.50
2019-04-22T02:24:39.628Z,11.50
2019-04-22T02:25:51.604Z,11.50
2019-04-22T02:26:54.571Z,11.50
2019-04-22T02:28:09.271Z,11.50
2019-04-22T02:29:15.120Z,11.50
2019-04-22T02:30:22.614Z,11.50
2019-04-22T02:33:06.123Z,11.50
2019-04-22T02:35:04.049Z,11.40
2019-04-22T02:37:19.246Z,11.40
2019-04-22T02:38:46.732Z,11.40
2019-04-22T02:41:12.872Z,11.40
2019-04-22T02:41:55.078Z,11.40
2019-04-22T02:43:18.401Z,11.40
2019-04-22T02:44:13.879Z,11.40
2019-04-22T02:45:28.781Z,11.40
2019-04-22T02:46:44.377Z,11.40
2019-04-22T02:47:36.247Z,11.50
2019-04-22T02:51:12.552Z,11.40
2019-04-22T02:52:20.324Z,11.40
2019-04-22T02:53:48.661Z,11.40
2019-04-22T02:54:38.352Z,11.40
2019-04-22T02:55:41.277Z,11.40
2019-04-22T02:57:57.836Z,11.40
2019-04-22T03:00:21.447Z,11.30
2019-04-22T03:02:43.888Z,11.20
2019-04-22T03:03:50.535Z,11.20
2019-04-22T03:04:44.028Z,11.10
2019-04-22T03:06:11.471Z,11.10
2019-04-22T03:07:03.759Z,11.10
2019-04-22T03:08:23.563Z,11.00
2019-04-22T03:10:47.386Z,11.00
2019-04-22T03:11:58.610Z,11.00
2019-04-22T03:12:54.095Z,10.90
2019-04-22T03:15:11.652Z,10.90
2019-04-22T03:16:28.846Z,10.90
2019-04-22T03:18:53.219Z,10.80
2019-04-22T03:20:58.301Z,10.80
2019-04-22T03:22:10.167Z,10.80
2019-04-22T03:24:36.204Z,10.90
2019-04-22T03:26:01.283Z,10.90
2019-04-22T03:27:42.690Z,11.00
2019-04-22T03:30:45.533Z,10.90
2019-04-22T03:32:46.122Z,10.90
2019-04-22T03:33:16.585Z,10.80
2019-04-22T03:37:04.422Z,10.90
2019-04-22T03:41:27.224Z,10.90
2019-04-22T03:42:10.025Z,10.90
2019-04-22T03:43:35.779Z,10.90
2019-04-22T03:44:39.209Z,10.90
2019-04-22T03:45:58.679Z,10.90
2019-04-22T03:48:05.258Z,10.90
2019-04-22T03:50:27.921Z,10.90
2019-04-22T03:51:38.369Z,10.90
2019-04-22T03:52:27.264Z,10.90
2019-04-22T03:53:55.090Z,10.90
2019-04-22T03:55:09.303Z,10.90
2019-04-22T03:56:19.048Z,10.90
2019-04-22T03:57:36.901Z,11.00
2019-04-22T03:58:13.105Z,10.90
2019-04-22T04:00:45.585Z,10.90
2019-04-22T04:03:00.990Z,11.00
2019-04-22T04:05:24.355Z,11.00
2019-04-22T04:06:32.683Z,11.10
2019-04-22T04:09:49.227Z,11.10
2019-04-22T04:11:20.543Z,11.10
2019-04-22T04:14:26.341Z,11.10
2019-04-22T04:16:54.807Z,11.10
2019-04-22T04:19:07.187Z,11.10
2019-04-22T04:20:10.669Z,11.10
2019-04-22T04:21:25.983Z,11.20
2019-04-22T04:23:49.611Z,11.20
2019-04-22T04:26:33.610Z,11.10
2019-04-22T04:28:29.775Z,11.20
2019-04-22T04:30:30.268Z,11.20
2019-04-22T04:31:41.354Z,11.20
2019-04-22T04:35:18.922Z,11.10
2019-04-22T04:38:28.733Z,11.20
2019-04-22T04:39:49.969Z,11.20
2019-04-22T04:40:46.095Z,11.20
2019-04-22T04:42:25.428Z,11.10
2019-04-22T04:45:34.694Z,11.20
2019-04-22T04:46:42.127Z,11.20
2019-04-22T04:52:19.294Z,11.30
2019-04-22T04:54:30.232Z,11.30
2019-04-22T04:55:35.116Z,11.40
2019-04-22T04:56:44.488Z,11.40
2019-04-22T04:58:03.470Z,11.40
2019-04-22T05:01:28.919Z,11.50
2019-04-22T05:02:48.923Z,11.50
2019-04-22T05:04:59.369Z,11.50
2019-04-22T05:05:58.985Z,11.60
2019-04-22T05:08:14.772Z,11.70
2019-04-22T05:11:47.403Z,11.80
2019-04-22T05:12:53.559Z,11.90
2019-04-22T05:15:09.048Z,11.90
2019-04-22T05:17:23.015Z,11.90
2019-04-22T05:18:29.409Z,12.00
2019-04-22T05:20:50.650Z,12.10
2019-04-22T05:21:53.471Z,12.10
2019-04-22T05:23:16.667Z,12.10
2019-04-22T05:24:15.065Z,12.20
2019-04-22T05:25:18.973Z,12.20
2019-04-22T05:26:31.232Z,12.20
2019-04-22T05:27:35.884Z,12.20
2019-04-22T05:28:35.136Z,12.30
2019-04-22T05:31:01.672Z,12.40
2019-04-22T05:32:01.212Z,12.40
2019-04-22T05:33:14.215Z,12.40
2019-04-22T05:34:26.423Z,12.40
2019-04-22T05:35:31.184Z,12.40
2019-04-22T05:36:44.447Z,12.50
2019-04-22T05:39:00.110Z,12.50
2019-04-22T05:40:19.337Z,12.50
2019-04-22T05:41:16.249Z,12.50
2019-04-22T05:42:26.891Z,12.50
2019-04-22T05:43:38.640Z,12.60
2019-04-22T05:44:45.140Z,12.60
2019-04-22T05:45:54.551Z,12.60
2019-04-22T05:46:53.235Z,12.70
2019-04-22T05:48:02.899Z,12.70
2019-04-22T05:50:36.754Z,12.70
2019-04-22T05:51:38.644Z,12.80
2019-04-22T05:52:48.457Z,12.80
2019-04-22T05:54:05.441Z,12.90
2019-04-22T05:55:08.508Z,12.90
2019-04-22T05:56:23.830Z,13.00
2019-04-22T05:57:27.524Z,13.00
2019-04-22T05:58:38.122Z,13.10
2019-04-22T05:59:45.744Z,13.20
2019-04-22T06:01:36.539Z,13.20
2019-04-22T06:02:25.305Z,13.20
2019-04-22T06:03:21.003Z,13.20
2019-04-22T06:04:29.454Z,13.30
2019-04-22T06:05:45.312Z,13.30
2019-04-22T06:06:46.900Z,13.40
2019-04-22T06:08:02.456Z,13.40
2019-04-22T06:09:10.591Z,13.50
2019-04-22T06:10:30.799Z,13.50
2019-04-22T06:12:41.715Z,13.60
2019-04-22T06:13:51.995Z,13.70
2019-04-22T06:15:08.233Z,13.80
2019-04-22T06:16:18.549Z,13.80
2019-04-22T06:18:33.405Z,13.90
2019-04-22T06:19:49.126Z,13.90
2019-04-22T06:21:04.265Z,14.00
2019-04-22T06:22:09.640Z,14.00
2019-04-22T06:24:26.090Z,14.10
2019-04-22T06:25:38.821Z,14.20
2019-04-22T06:26:56.761Z,14.30
2019-04-22T06:27:48.295Z,14.30
2019-04-22T06:28:58.719Z,14.40
2019-04-22T06:30:04.942Z,14.40
2019-04-22T06:31:23.032Z,14.50
2019-04-22T06:32:28.027Z,14.50
2019-04-22T06:33:54.396Z,14.50
2019-04-22T06:35:07.989Z,14.60
2019-04-22T06:35:50.106Z,14.60
2019-04-22T06:37:05.333Z,14.60
2019-04-22T06:38:31.599Z,14.60
2019-04-22T06:39:26.134Z,14.70
2019-04-22T06:40:29.589Z,14.70
2019-04-22T06:42:42.475Z,14.80
2019-04-22T06:43:55.965Z,14.80
2019-04-22T06:45:02.288Z,14.80
2019-04-22T06:46:08.100Z,14.80
2019-04-22T06:47:15.003Z,14.80
2019-04-22T06:48:27.525Z,14.90
2019-04-22T06:49:33.233Z,14.90
2019-04-22T06:50:45.888Z,15.00
2019-04-22T06:52:07.981Z,15.00
2019-04-22T06:52:56.796Z,15.00
2019-04-22T06:54:07.741Z,15.10
2019-04-22T06:55:15.137Z,15.20
2019-04-22T06:56:35.189Z,15.30
2019-04-22T06:57:28.007Z,15.30
2019-04-22T06:58:44.038Z,15.40
2019-04-22T06:59:51.804Z,15.50
2019-04-22T07:00:59.409Z,15.50
2019-04-22T07:02:14.889Z,15.50
2019-04-22T07:04:25.644Z,15.60
2019-04-22T07:05:27.538Z,15.60
2019-04-22T07:06:42.122Z,15.70
2019-04-22T07:07:45.310Z,15.80
2019-04-22T07:09:13.938Z,15.80
2019-04-22T07:10:18.125Z,15.90
2019-04-22T07:11:07.844Z,15.90
2019-04-22T07:12:24.742Z,16.00
2019-04-22T07:14:47.200Z,16.00
2019-04-22T07:15:50.326Z,16.00
2019-04-22T07:16:56.088Z,16.10
2019-04-22T07:18:11.616Z,16.10
2019-04-22T07:19:17.506Z,16.20
2019-04-22T07:20:23.797Z,16.20
2019-04-22T07:21:33.492Z,16.30
2019-04-22T07:22:41.812Z,16.40
2019-04-22T07:24:02.756Z,16.50
2019-04-22T07:24:58.895Z,16.60
2019-04-22T07:26:04.643Z,16.60
2019-04-22T07:27:18.804Z,16.70
2019-04-22T07:28:20.105Z,16.80
2019-04-22T07:29:37.497Z,16.80
2019-04-22T07:31:02.433Z,16.80
2019-04-22T07:31:55.728Z,17.00
2019-04-22T07:34:15.767Z,17.00
2019-04-22T07:35:22.757Z,17.00
2019-04-22T07:37:37.073Z,17.10
2019-04-22T07:38:40.913Z,17.20
2019-04-22T07:40:02.260Z,17.30
2019-04-22T07:40:56.263Z,17.30
2019-04-22T07:42:17.089Z,17.40
2019-04-22T07:45:39.149Z,17.50
2019-04-22T07:46:50.002Z,17.50
2019-04-22T07:49:06.323Z,17.50
2019-04-22T07:50:22.955Z,17.40
2019-04-22T07:51:20.216Z,17.50
2019-04-22T07:52:27.607Z,17.50
2019-04-22T07:53:37.141Z,17.50
2019-04-22T07:54:50.960Z,17.50
2019-04-22T07:55:55.468Z,17.50
2019-04-22T07:57:11.668Z,17.60
2019-04-22T07:58:16.766Z,17.70
2019-04-22T07:59:22.445Z,17.80
2019-04-22T08:00:33.055Z,17.90
2019-04-22T08:01:35.481Z,18.00
2019-04-22T08:07:21.801Z,18.30
2019-04-22T08:09:47.807Z,18.40
2019-04-22T08:10:48.634Z,18.40
2019-04-22T08:11:55.917Z,18.30
2019-04-22T08:13:03.767Z,18.30
2019-04-22T08:14:15.692Z,18.20
2019-04-22T08:15:31.239Z,18.20
2019-04-22T08:16:35.114Z,18.20
2019-04-22T08:18:00.257Z,18.30
2019-04-22T08:18:46.030Z,18.40
2019-04-22T08:20:02.711Z,18.40
2019-04-22T08:21:10.530Z,18.40
2019-04-22T08:22:15.697Z,18.40
2019-04-22T08:24:41.811Z,18.60
2019-04-22T08:25:45.851Z,18.60
2019-04-22T08:26:54.674Z,18.60
2019-04-22T08:28:03.305Z,18.60
2019-04-22T08:29:17.473Z,18.60
2019-04-22T08:30:23.425Z,18.70
2019-04-22T08:32:41.634Z,18.80
2019-04-22T08:33:47.812Z,18.90
2019-04-22T08:34:58.078Z,19.00
2019-04-22T08:36:18.032Z,19.00
2019-04-22T08:37:41.446Z,19.10
2019-04-22T08:38:34.145Z,19.10
2019-04-22T08:39:40.551Z,19.10
2019-04-22T08:40:45.575Z,19.10
2019-04-22T08:41:39.908Z,19.20
2019-04-22T08:44:10.549Z,19.30
2019-04-22T08:45:14.343Z,19.20
2019-04-22T08:46:30.271Z,19.30
2019-04-22T08:48:48.383Z,19.40
2019-04-22T08:51:00.821Z,19.40
2019-04-22T08:53:40.371Z,19.50
2019-04-22T08:54:33.962Z,19.60
2019-04-22T08:55:38.207Z,19.60
2019-04-22T08:56:46.040Z,19.60
2019-04-22T08:58:16.756Z,19.70
2019-04-22T08:59:10.979Z,19.80
2019-04-22T09:00:07.038Z,19.90
2019-04-22T09:01:23.876Z,20.00
2019-04-22T09:02:32.704Z,20.00
2019-04-22T09:03:38.245Z,20.10
2019-04-22T09:04:42.074Z,20.10
2019-04-22T09:06:04.894Z,20.20
2019-04-22T09:07:12.718Z,20.10
2019-04-22T09:08:14.269Z,20.20
2019-04-22T09:09:25.018Z,20.20
2019-04-22T09:10:40.012Z,20.20
2019-04-22T09:11:47.097Z,20.30
2019-04-22T09:14:06.174Z,20.40
2019-04-22T09:15:08.174Z,20.40
2019-04-22T09:16:20.718Z,20.40
2019-04-22T09:17:39.815Z,20.40
2019-04-22T09:18:34.763Z,20.40
2019-04-22T09:19:38.572Z,20.40
2019-04-22T09:21:02.627Z,20.40
2019-04-22T09:22:03.365Z,20.50
2019-04-22T09:23:07.267Z,20.50
2019-04-22T09:24:16.569Z,20.60
2019-04-22T09:25:27.418Z,20.70
2019-04-22T09:26:36.008Z,20.70
2019-04-22T09:27:47.904Z,20.80
2019-04-22T09:29:05.839Z,20.80
2019-04-22T09:30:01.233Z,20.80
2019-04-22T09:31:14.964Z,21.00
2019-04-22T09:32:19.006Z,21.00
2019-04-22T09:33:27.646Z,21.00
2019-04-22T09:34:33.914Z,21.10
2019-04-22T09:35:45.364Z,21.10
2019-04-22T09:36:59.474Z,21.10
2019-04-22T09:38:16.975Z,21.20
2019-04-22T09:39:10.620Z,21.30
2019-04-22T09:40:28.387Z,21.40
2019-04-22T09:41:40.136Z,21.60
2019-04-22T09:42:51.800Z,21.70
2019-04-22T09:43:56.607Z,21.80
2019-04-22T09:45:05.773Z,21.70
2019-04-22T09:46:19.743Z,21.60
2019-04-22T09:47:29.653Z,21.60
2019-04-22T09:48:41.750Z,21.60
2019-04-22T09:50:48.210Z,21.60
2019-04-22T09:51:58.197Z,21.60
2019-04-22T09:53:08.648Z,21.70
2019-04-22T09:54:22.150Z,21.70
2019-04-22T09:55:26.162Z,21.70
2019-04-22T09:56:42.186Z,21.90
2019-04-22T09:57:39.740Z,22.00
2019-04-22T09:58:50.500Z,22.10
2019-04-22T10:00:02.297Z,22.00
2019-04-22T10:01:26.103Z,22.00
2019-04-22T10:03:36.564Z,22.20
2019-04-22T10:04:46.570Z,22.20
2019-04-22T10:06:01.296Z,22.30
2019-04-22T10:07:01.034Z,22.30
2019-04-22T10:08:21.788Z,22.40
2019-04-22T10:09:34.256Z,22.40
2019-04-22T10:10:29.549Z,22.50
2019-04-22T10:11:56.420Z,22.50
2019-04-22T10:13:03.161Z,22.50
2019-04-22T10:14:12.349Z,22.40
2019-04-22T10:15:19.523Z,22.40
2019-04-22T10:16:37.089Z,22.40
2019-04-22T10:17:36.741Z,22.30
2019-04-22T10:18:48.995Z,22.40
2019-04-22T10:19:53.054Z,22.40
2019-04-22T10:21:08.667Z,22.30
2019-04-22T10:22:23.965Z,22.40
2019-04-22T10:23:25.419Z,22.40
2019-04-22T10:24:29.629Z,22.50
2019-04-22T10:25:35.055Z,22.60
2019-04-22T10:28:01.862Z,22.70
2019-04-22T10:29:08.549Z,22.80
2019-04-22T10:30:16.444Z,22.80
2019-04-22T10:31:28.089Z,22.80
2019-04-22T10:32:33.589Z,22.70
2019-04-22T10:33:38.367Z,22.70
2019-04-22T10:34:38.812Z,22.60
2019-04-22T10:35:39.458Z,22.60
2019-04-22T10:36:51.027Z,22.70
2019-04-22T10:37:54.792Z,22.70
2019-04-22T10:39:02.288Z,22.70
2019-04-22T10:40:17.773Z,22.80
2019-04-22T10:41:24.716Z,22.80
2019-04-22T10:42:41.295Z,22.80
2019-04-22T10:43:48.216Z,22.80
2019-04-22T10:44:55.597Z,22.90
2019-04-22T10:46:04.105Z,23.00
2019-04-22T10:47:11.870Z,23.10
2019-04-22T10:48:18.793Z,23.10
2019-04-22T10:49:26.578Z,23.20
2019-04-22T10:50:46.652Z,23.20
2019-04-22T10:51:54.978Z,23.20
2019-04-22T10:53:01.971Z,23.20
2019-04-22T10:54:09.639Z,23.20
2019-04-22T10:55:17.254Z,23.30
2019-04-22T10:56:25.296Z,23.30
2019-04-22T10:57:32.134Z,23.30
2019-04-22T10:58:40.347Z,23.30
2019-04-22T10:59:47.287Z,23.40
2019-04-22T11:00:54.722Z,23.40
2019-04-22T11:02:03.412Z,23.30
2019-04-22T11:03:14.034Z,23.20
2019-04-22T11:04:21.622Z,23.30
2019-04-22T11:05:30.180Z,23.20
2019-04-22T11:06:42.594Z,23.30
2019-04-22T11:07:51.958Z,23.30
2019-04-22T11:08:59.268Z,23.40
2019-04-22T11:10:20.628Z,23.40
2019-04-22T11:11:25.950Z,23.50
2019-04-22T11:12:24.730Z,23.40
2019-04-22T11:13:29.436Z,23.50
2019-04-22T11:14:37.208Z,23.40
2019-04-22T11:15:44.671Z,23.40
2019-04-22T11:16:53.188Z,23.50
2019-04-22T11:18:01.870Z,23.60
2019-04-22T11:19:09.817Z,23.70
2019-04-22T11:20:17.729Z,23.80
2019-04-22T11:21:25.385Z,23.90
2019-04-22T11:22:36.589Z,23.80
2019-04-22T11:23:42.335Z,23.80
2019-04-22T11:24:50.824Z,23.70
2019-04-22T11:25:59.567Z,23.60
2019-04-22T11:27:07.049Z,23.50
2019-04-22T11:28:16.049Z,23.50
2019-04-22T11:29:23.752Z,23.50
2019-04-22T11:30:32.408Z,23.50
2019-04-22T11:31:39.412Z,23.60
2019-04-22T11:32:46.591Z,23.60
2019-04-22T11:33:54.443Z,23.70
2019-04-22T11:35:01.801Z,23.80
2019-04-22T11:36:10.039Z,23.70
2019-04-22T11:37:16.932Z,23.70
2019-04-22T11:38:24.669Z,23.70
2019-04-22T11:39:36.127Z,23.60
2019-04-22T11:40:45.520Z,23.70
2019-04-22T11:41:49.966Z,23.70
2019-04-22T11:42:59.597Z,23.70
2019-04-22T11:44:07.569Z,23.70
2019-04-22T11:45:15.314Z,23.80
2019-04-22T11:46:23.248Z,23.90
2019-04-22T11:47:30.032Z,23.80
2019-04-22T11:48:38.097Z,23.90
2019-04-22T11:49:45.843Z,24.00
2019-04-22T11:50:53.741Z,23.90
2019-04-22T11:52:01.042Z,23.90
2019-04-22T11:53:08.952Z,23.90
2019-04-22T11:54:16.980Z,23.80
2019-04-22T11:55:24.625Z,23.90
2019-04-22T11:56:31.806Z,23.90
2019-04-22T11:57:39.246Z,24.00
2019-04-22T11:58:46.951Z,24.00
2019-04-22T11:59:54.677Z,23.90
2019-04-22T12:01:04.160Z,23.90
2019-04-22T12:02:11.989Z,23.80
2019-04-22T12:03:20.989Z,23.70
2019-04-22T12:04:27.930Z,23.80
2019-04-22T12:05:34.810Z,23.80
2019-04-22T12:06:41.973Z,23.90
2019-04-22T12:07:49.096Z,23.90
2019-04-22T12:08:57.419Z,23.90
2019-04-22T12:10:17.836Z,23.90
2019-04-22T12:11:13.789Z,23.90
2019-04-22T12:12:21.591Z,23.90
2019-04-22T12:13:28.459Z,23.80
2019-04-22T12:14:36.226Z,23.90
2019-04-22T12:15:43.090Z,24.00
2019-04-22T12:16:49.857Z,24.10
2019-04-22T12:17:57.351Z,24.10
2019-04-22T12:19:05.085Z,24.20
2019-04-22T12:20:16.510Z,24.30
2019-04-22T12:21:24.055Z,24.40
2019-04-22T12:22:31.800Z,24.40
2019-04-22T12:23:39.317Z,24.30
2019-04-22T12:24:46.278Z,24.30
2019-04-22T12:26:00.915Z,24.20
2019-04-22T12:27:04.287Z,24.10
2019-04-22T12:28:11.268Z,24.10
2019-04-22T12:29:17.990Z,24.10
2019-04-22T12:30:25.706Z,24.10
2019-04-22T12:31:33.483Z,24.10
2019-04-22T12:32:41.167Z,24.10
2019-04-22T12:33:49.308Z,24.10
2019-04-22T12:34:57.479Z,24.10
2019-04-22T12:36:04.689Z,24.00
2019-04-22T12:37:17.398Z,24.00
2019-04-22T12:38:21.985Z,24.10
2019-04-22T12:39:29.562Z,24.20
2019-04-22T12:40:46.769Z,24.10
2019-04-22T12:41:46.476Z,24.10
2019-04-22T12:42:53.584Z,24.10
2019-04-22T12:44:01.072Z,24.20
2019-04-22T12:45:12.159Z,24.30
2019-04-22T12:46:20.487Z,24.30
2019-04-22T12:47:28.304Z,24.40
2019-04-22T12:48:35.160Z,24.30
2019-04-22T12:49:42.496Z,24.30
2019-04-22T12:50:53.877Z,24.30
2019-04-22T12:51:59.183Z,24.30
2019-04-22T12:53:10.655Z,24.30
2019-04-22T12:54:17.010Z,24.30
2019-04-22T12:55:24.201Z,24.40
2019-04-22T12:56:31.140Z,24.40
2019-04-22T12:57:38.872Z,24.30
2019-04-22T12:58:47.554Z,24.30
2019-04-22T12:59:55.415Z,24.20
2019-04-22T13:01:03.362Z,24.30
2019-04-22T13:02:11.209Z,24.30
2019-04-22T13:03:20.175Z,24.30
2019-04-22T13:04:27.950Z,24.30
2019-04-22T13:05:35.345Z,24.30
2019-04-22T13:06:44.029Z,24.40
2019-04-22T13:07:51.641Z,24.50
2019-04-22T13:09:00.260Z,24.40
2019-04-22T13:10:10.120Z,24.40
2019-04-22T13:11:21.387Z,24.50
2019-04-22T13:12:26.674Z,24.40
2019-04-22T13:13:34.616Z,24.30
2019-04-22T13:14:43.280Z,24.30
2019-04-22T13:15:51.013Z,24.30
2019-04-22T13:16:57.911Z,24.30
2019-04-22T13:18:13.752Z,24.30
2019-04-22T13:19:17.056Z,24.30
2019-04-22T13:20:24.311Z,24.30
2019-04-22T13:21:31.286Z,24.30
2019-04-22T13:22:38.855Z,24.20
2019-04-22T13:23:46.628Z,24.20
2019-04-22T13:24:54.138Z,24.10
2019-04-22T13:26:01.342Z,24.20
2019-04-22T13:27:08.876Z,24.20
2019-04-22T13:28:16.081Z,24.20
2019-04-22T13:29:23.477Z,24.20
2019-04-22T13:30:32.551Z,24.10
2019-04-22T13:31:40.435Z,24.20
2019-04-22T13:32:47.389Z,24.20
2019-04-22T13:33:57.239Z,24.20
2019-04-22T13:35:05.782Z,24.10
2019-04-22T13:36:13.014Z,24.10
2019-04-22T13:37:20.889Z,24.10
2019-04-22T13:38:29.065Z,24.10
2019-04-22T13:39:36.729Z,24.20
2019-04-22T13:40:59.274Z,24.20
2019-04-22T13:41:59.311Z,24.30
2019-04-22T13:43:01.105Z,24.20
2019-04-22T13:44:09.120Z,24.20
2019-04-22T13:45:18.012Z,24.20
2019-04-22T13:46:26.350Z,24.30
2019-04-22T13:47:50.609Z,24.30
2019-04-22T13:49:08.552Z,24.30
2019-04-22T13:50:25.568Z,24.40
2019-04-22T13:51:30.099Z,24.40
2019-04-22T13:52:46.382Z,24.50
2019-04-22T13:54:13.770Z,24.50
2019-04-22T13:55:57.493Z,24.50
2019-04-22T13:56:56.938Z,24.50
2019-04-22T13:58:05.870Z,24.50
2019-04-22T13:59:11.303Z,24.50
2019-04-22T14:00:12.230Z,24.70
2019-04-22T14:01:22.932Z,24.70
2019-04-22T14:02:48.629Z,24.70
2019-04-22T14:04:10.258Z,24.70
2019-04-22T14:05:19.034Z,24.60
2019-04-22T14:06:26.917Z,24.60
2019-04-22T14:07:34.751Z,24.50
2019-04-22T14:08:43.111Z,24.50
2019-04-22T14:09:50.736Z,24.60
2019-04-22T14:11:09.924Z,24.70
2019-04-22T14:12:08.178Z,24.60
2019-04-22T14:13:16.154Z,24.60
2019-04-22T14:14:24.010Z,24.50
2019-04-22T14:15:33.864Z,24.50
2019-04-22T14:16:42.482Z,24.50
2019-04-22T14:17:49.721Z,24.40
2019-04-22T14:18:58.113Z,24.50
2019-04-22T14:20:06.770Z,24.50
2019-04-22T14:21:14.961Z,24.40
2019-04-22T14:22:22.257Z,24.40
2019-04-22T14:23:30.782Z,24.40
2019-04-22T14:24:38.631Z,24.50
2019-04-22T14:25:46.397Z,24.40
2019-04-22T14:27:08.565Z,24.40
2019-04-22T14:28:09.125Z,24.40
2019-04-22T14:29:11.805Z,24.50
2019-04-22T14:30:19.238Z,24.40
2019-04-22T14:31:26.733Z,24.40
2019-04-22T14:32:36.065Z,24.40
2019-04-22T14:33:46.438Z,24.40
2019-04-22T14:34:51.394Z,24.30
2019-04-22T14:35:58.571Z,24.40
2019-04-22T14:37:05.777Z,24.30
2019-04-22T14:38:14.169Z,24.40
2019-04-22T14:39:21.954Z,24.40
2019-04-22T14:40:30.390Z,24.50
2019-04-22T14:41:55.348Z,24.40
2019-04-22T14:43:07.800Z,24.50
2019-04-22T14:44:56.591Z,24.50
2019-04-22T14:45:30.739Z,24.50
2019-04-22T14:46:39.146Z,24.40
2019-04-22T14:47:49.479Z,24.40
2019-04-22T14:48:49.743Z,24.50
2019-04-22T14:50:00.854Z,24.50
2019-04-22T14:51:07.433Z,24.50
2019-04-22T14:52:21.488Z,24.50
2019-04-22T14:53:29.013Z,24.40
2019-04-22T14:54:26.570Z,24.30
2019-04-22T14:55:28.647Z,24.30
2019-04-22T14:56:34.036Z,24.30
2019-04-22T14:57:42.288Z,24.30
2019-04-22T14:58:50.889Z,24.30
2019-04-22T14:59:57.898Z,24.40
2019-04-22T15:01:06.852Z,24.50
2019-04-22T15:02:15.991Z,24.60
2019-04-22T15:03:23.885Z,24.70
2019-04-22T15:04:31.197Z,24.50
2019-04-22T15:05:40.068Z,24.30
2019-04-22T15:06:49.878Z,24.30
2019-04-22T15:07:57.430Z,24.20
2019-04-22T15:09:08.048Z,24.30
2019-04-22T15:10:17.724Z,24.30
2019-04-22T15:11:24.901Z,24.50
2019-04-22T15:12:39.105Z,24.50
2019-04-22T15:13:41.233Z,24.50
2019-04-22T15:14:48.929Z,24.50
2019-04-22T15:16:25.674Z,24.30
2019-04-22T15:17:49.275Z,24.30
2019-04-22T15:19:11.634Z,24.20
2019-04-22T15:20:39.650Z,24.30
2019-04-22T15:21:47.167Z,24.30
2019-04-22T15:22:54.817Z,24.30
2019-04-22T15:24:20.610Z,24.30
2019-04-22T15:25:28.370Z,24.20
2019-04-22T15:26:35.484Z,24.20
2019-04-22T15:27:43.464Z,24.10
2019-04-22T15:28:51.412Z,24.10
2019-04-22T15:29:59.352Z,24.00
2019-04-22T15:31:06.831Z,24.00
2019-04-22T15:32:13.862Z,24.00
2019-04-22T15:33:21.487Z,23.90
2019-04-22T15:34:28.388Z,23.90
2019-04-22T15:35:37.612Z,23.90
2019-04-22T15:36:44.608Z,23.90
2019-04-22T15:37:52.987Z,24.00
2019-04-22T15:39:00.028Z,23.90
2019-04-22T15:40:08.877Z,23.90
2019-04-22T15:41:16.635Z,23.80
2019-04-22T15:42:28.768Z,23.80
2019-04-22T15:43:35.509Z,23.80
2019-04-22T15:44:44.067Z,23.90
2019-04-22T15:45:51.052Z,23.80
2019-04-22T15:46:57.787Z,23.80
2019-04-22T15:48:06.398Z,23.80
2019-04-22T15:49:13.787Z,23.80
2019-04-22T15:50:22.383Z,23.80
2019-04-22T15:51:30.823Z,23.70
2019-04-22T15:52:44.480Z,23.70
2019-04-22T15:53:47.495Z,23.60
2019-04-22T15:54:54.473Z,23.40
2019-04-22T15:56:03.077Z,23.50
2019-04-22T15:57:10.842Z,23.50
2019-04-22T15:58:17.773Z,23.40
2019-04-22T15:59:44.475Z,23.40
2019-04-22T16:00:44.499Z,23.40
2019-04-22T16:01:42.955Z,23.30
2019-04-22T16:02:51.746Z,23.30
2019-04-22T16:03:58.940Z,23.40
2019-04-22T16:05:06.646Z,23.40
2019-04-22T16:06:15.742Z,23.50
2019-04-22T16:07:25.969Z,23.50
2019-04-22T16:08:34.199Z,23.40
2019-04-22T16:09:41.693Z,23.50
2019-04-22T16:10:48.726Z,23.40
2019-04-22T16:12:09.361Z,23.40
2019-04-22T16:13:11.306Z,23.40
2019-04-22T16:14:22.982Z,23.40
2019-04-22T16:15:24.536Z,23.40
2019-04-22T16:16:32.465Z,23.40
2019-04-22T16:17:40.416Z,23.30
2019-04-22T16:18:48.574Z,23.40
2019-04-22T16:19:57.189Z,23.50
2019-04-22T16:21:04.876Z,23.60
2019-04-22T16:22:16.889Z,23.60
2019-04-22T16:23:32.290Z,23.50
2019-04-22T16:25:09.003Z,23.50
2019-04-22T16:26:20.258Z,23.40
2019-04-22T16:27:27.976Z,23.30
2019-04-22T16:28:35.643Z,23.20
2019-04-22T16:29:43.190Z,23.20
2019-04-22T16:30:51.125Z,23.10
2019-04-22T16:31:58.633Z,23.00
2019-04-22T16:33:07.820Z,23.20